States of Jersey

Home Log in

METAR EGJJ 270350Z 17008KT 9999 SCT015 17/15 Q1011 BECMG BKN010

METAR EGJB 270350Z 19008KT 9999 SCT014 15/14 Q1011

METAR LFRD 270330Z AUTO 21010KT 9999 BKN014 OVC210 18/15 Q1012 TEMPO VRB15G25KT TSRA BKN070CB

METAR LFRC 270330Z AUTO 17008KT CAVOK 18/15 Q1012